createdAt,value
2022-10-06T00:00:36.446Z,84.72
2022-10-06T00:03:03.181Z,84.55
2022-10-06T00:05:29.992Z,84.51
2022-10-06T00:07:57.217Z,84.21
2022-10-06T00:10:23.936Z,84.23
2022-10-06T00:12:51.105Z,84.31
2022-10-06T00:15:20.173Z,83.73
2022-10-06T00:17:47.024Z,83.31
2022-10-06T00:20:14.528Z,82.91
2022-10-06T00:22:44.852Z,82.58
2022-10-06T00:25:13.269Z,82.25
2022-10-06T00:27:41.813Z,81.93
2022-10-06T00:30:13.301Z,81.49
2022-10-06T00:32:40.065Z,81.20
2022-10-06T00:38:10.818Z,80.25
2022-10-06T00:40:46.026Z,79.94
2022-10-06T00:43:41.552Z,79.55
2022-10-06T00:46:09.660Z,79.30
2022-10-06T00:48:36.385Z,78.84
2022-10-06T00:51:03.120Z,78.78
2022-10-06T00:53:29.956Z,78.51
2022-10-06T00:55:57.323Z,78.36
2022-10-06T00:58:25.005Z,78.40
2022-10-06T01:00:55.396Z,78.24
2022-10-06T01:03:25.774Z,78.06
2022-10-06T01:05:52.763Z,77.77
2022-10-06T01:08:19.446Z,77.67
2022-10-06T01:10:46.180Z,77.78
2022-10-06T01:13:13.380Z,77.68
2022-10-06T01:15:55.480Z,77.77
2022-10-06T01:18:22.439Z,77.80
2022-10-06T01:20:52.917Z,77.76
2022-10-06T01:23:19.648Z,78.03
2022-10-06T01:25:46.444Z,78.16
2022-10-06T01:28:13.141Z,78.17
2022-10-06T01:30:46.338Z,78.21
2022-10-06T01:33:13.866Z,78.36
2022-10-06T01:35:41.016Z,78.56
2022-10-06T01:38:07.683Z,78.96
2022-10-06T01:40:34.965Z,78.97
2022-10-06T01:43:01.806Z,79.23
2022-10-06T01:45:28.802Z,79.44
2022-10-06T01:47:55.525Z,79.61
2022-10-06T01:50:22.337Z,79.33
2022-10-06T01:52:49.133Z,79.61
2022-10-06T01:55:17.183Z,79.65
2022-10-06T01:57:44.021Z,79.87
2022-10-06T02:00:12.092Z,80.34
2022-10-06T02:02:41.991Z,80.50
2022-10-06T02:05:08.926Z,80.71
2022-10-06T02:07:38.457Z,81.10
2022-10-06T02:10:06.026Z,81.33
2022-10-06T02:12:33.476Z,81.59
2022-10-06T02:15:00.355Z,81.50
2022-10-06T02:17:27.057Z,81.72
2022-10-06T02:19:53.729Z,81.87
2022-10-06T02:22:20.382Z,81.95
2022-10-06T02:24:47.935Z,81.86
2022-10-06T02:27:14.641Z,81.97
2022-10-06T02:29:41.759Z,81.88
2022-10-06T02:32:08.716Z,81.96
2022-10-06T02:34:35.346Z,81.98
2022-10-06T02:37:02.357Z,82.09
2022-10-06T02:39:29.726Z,82.16
2022-10-06T02:41:56.424Z,81.83
2022-10-06T02:44:24.984Z,81.78
2022-10-06T02:46:53.761Z,81.88
2022-10-06T02:49:20.676Z,81.79
2022-10-06T02:51:47.961Z,81.93
2022-10-06T02:54:15.493Z,82.06
2022-10-06T02:56:42.212Z,82.09
2022-10-06T02:59:08.894Z,82.00
2022-10-06T03:01:36.410Z,82.03
2022-10-06T03:04:11.760Z,81.92
2022-10-06T03:06:39.970Z,81.82
2022-10-06T03:09:15.936Z,81.75
2022-10-06T03:11:43.326Z,81.51
2022-10-06T03:14:14.096Z,81.15
2022-10-06T03:16:42.796Z,80.91
2022-10-06T03:19:16.820Z,80.95
2022-10-06T03:21:44.658Z,80.99
2022-10-06T03:24:11.985Z,80.86
2022-10-06T03:26:40.551Z,80.98
2022-10-06T03:29:11.270Z,81.05
2022-10-06T03:31:40.052Z,80.70
2022-10-06T03:34:06.988Z,80.66
2022-10-06T03:36:34.034Z,80.55
2022-10-06T03:39:01.886Z,80.25
2022-10-06T03:41:30.423Z,80.37
2022-10-06T03:43:57.956Z,80.30
2022-10-06T03:46:26.773Z,80.28
2022-10-06T03:48:53.661Z,80.22
2022-10-06T03:51:26.937Z,80.21
2022-10-06T03:53:54.139Z,80.31
2022-10-06T03:56:23.278Z,80.20
2022-10-06T03:58:54.827Z,80.03
2022-10-06T04:01:26.220Z,80.11
2022-10-06T04:03:54.717Z,80.23
2022-10-06T04:06:21.655Z,80.41
2022-10-06T04:08:49.119Z,80.34
2022-10-06T04:11:17.528Z,80.37
2022-10-06T04:13:44.714Z,80.27
2022-10-06T04:16:18.240Z,80.50
2022-10-06T04:18:46.149Z,80.86
2022-10-06T04:21:13.171Z,80.90
2022-10-06T04:23:40.397Z,80.88
2022-10-06T04:26:18.106Z,80.79
2022-10-06T04:28:48.729Z,80.65
2022-10-06T04:31:19.391Z,80.84
2022-10-06T04:33:47.065Z,80.66
2022-10-06T04:36:17.241Z,79.43
2022-10-06T04:38:43.969Z,78.13
2022-10-06T04:41:12.750Z,77.46
2022-10-06T04:43:40.386Z,77.07
2022-10-06T04:46:30.256Z,77.05
2022-10-06T04:48:54.623Z,77.18
2022-10-06T04:51:24.906Z,77.40
2022-10-06T04:53:51.993Z,77.65
2022-10-06T04:56:26.413Z,77.44
2022-10-06T04:58:54.367Z,75.79
2022-10-06T05:01:22.784Z,73.40
2022-10-06T05:03:50.885Z,71.12
2022-10-06T05:06:19.568Z,68.11
2022-10-06T05:08:54.218Z,65.65
2022-10-06T05:11:25.603Z,63.00
2022-10-06T05:13:54.893Z,61.21
2022-10-06T05:16:22.222Z,60.24
2022-10-06T05:18:48.978Z,59.35
2022-10-06T05:21:17.465Z,58.22
2022-10-06T05:23:44.390Z,57.34
2022-10-06T05:26:31.289Z,56.71
2022-10-06T05:28:58.763Z,56.25
2022-10-06T05:31:33.330Z,56.14
2022-10-06T05:34:02.575Z,56.22
2022-10-06T05:36:30.413Z,56.29
2022-10-06T05:38:57.703Z,56.17
2022-10-06T05:41:26.589Z,56.19
2022-10-06T05:43:55.763Z,56.08
2022-10-06T05:46:25.148Z,56.17
2022-10-06T05:48:57.680Z,56.47
2022-10-06T05:51:31.256Z,56.55
2022-10-06T05:53:59.943Z,56.12
2022-10-06T05:56:31.335Z,54.73
2022-10-06T05:58:58.507Z,53.67
2022-10-06T06:01:27.382Z,52.90
2022-10-06T06:03:56.142Z,52.67
2022-10-06T06:06:27.791Z,52.07
2022-10-06T06:08:58.519Z,51.40
2022-10-06T06:11:27.725Z,50.94
2022-10-06T06:13:56.777Z,50.82
2022-10-06T06:16:24.074Z,51.36
2022-10-06T06:18:51.084Z,51.87
2022-10-06T06:21:18.208Z,52.06
2022-10-06T06:23:46.625Z,52.45
2022-10-06T06:26:24.685Z,52.63
2022-10-06T06:28:56.492Z,52.90
2022-10-06T06:31:26.677Z,53.27
2022-10-06T06:33:56.493Z,53.15
2022-10-06T06:36:37.003Z,53.40
2022-10-06T06:39:08.661Z,53.67
2022-10-06T06:41:40.594Z,53.73
2022-10-06T06:44:17.925Z,54.05
2022-10-06T06:46:53.473Z,53.91
2022-10-06T06:49:22.033Z,54.31
2022-10-06T06:51:53.940Z,54.82
2022-10-06T06:54:22.458Z,55.06
2022-10-06T06:56:55.351Z,54.82
2022-10-06T06:59:22.502Z,54.18
2022-10-06T07:01:51.581Z,53.77
2022-10-06T07:04:20.997Z,52.79
2022-10-06T07:06:57.063Z,52.28
2022-10-06T07:09:26.126Z,52.18
2022-10-06T07:11:58.239Z,51.86
2022-10-06T07:14:25.279Z,51.53
2022-10-06T07:17:11.013Z,51.33
2022-10-06T07:19:47.476Z,50.93
2022-10-06T07:22:35.046Z,50.76
2022-10-06T07:25:15.460Z,50.21
2022-10-06T07:27:47.380Z,49.91
2022-10-06T07:30:19.481Z,49.83
2022-10-06T07:32:50.329Z,49.89
2022-10-06T07:35:20.242Z,49.83
2022-10-06T07:37:48.885Z,49.38
2022-10-06T07:40:16.132Z,49.14
2022-10-06T07:42:49.183Z,48.98
2022-10-06T07:45:41.121Z,49.40
2022-10-06T07:48:18.775Z,49.59
2022-10-06T07:50:50.053Z,49.76
2022-10-06T07:53:20.308Z,49.34
2022-10-06T07:55:52.549Z,49.04
2022-10-06T07:58:24.021Z,48.68
2022-10-06T08:00:52.831Z,48.78
2022-10-06T08:03:20.039Z,49.43
2022-10-06T08:05:47.556Z,49.32
2022-10-06T08:08:14.983Z,48.98
2022-10-06T08:10:42.361Z,48.85
2022-10-06T08:13:09.140Z,48.76
2022-10-06T08:15:35.877Z,48.94
2022-10-06T08:18:08.739Z,48.94
2022-10-06T08:20:39.130Z,48.88
2022-10-06T08:23:08.705Z,48.76
2022-10-06T08:25:42.569Z,48.45
2022-10-06T08:28:12.814Z,48.14
2022-10-06T08:30:39.981Z,47.91
2022-10-06T08:33:06.658Z,48.07
2022-10-06T08:35:33.588Z,47.84
2022-10-06T08:38:00.367Z,47.60
2022-10-06T08:40:27.108Z,47.56
2022-10-06T08:42:55.726Z,47.48
2022-10-06T08:45:39.522Z,47.33
2022-10-06T08:48:14.055Z,47.08
2022-10-06T08:50:48.793Z,47.10
2022-10-06T08:53:21.803Z,46.79
2022-10-06T08:55:50.335Z,46.66
2022-10-06T08:58:35.622Z,46.55
2022-10-06T09:01:12.871Z,46.49
2022-10-06T09:03:39.587Z,46.24
2022-10-06T09:06:22.131Z,46.39
2022-10-06T09:08:54.409Z,46.43
2022-10-06T09:11:25.636Z,46.00
2022-10-06T09:13:55.636Z,45.91
2022-10-06T09:16:31.110Z,45.47
2022-10-06T09:19:18.370Z,45.44
2022-10-06T09:21:50.656Z,45.33
2022-10-06T09:24:18.918Z,45.16
2022-10-06T09:26:46.646Z,44.93
2022-10-06T09:29:13.998Z,44.86
2022-10-06T09:31:42.465Z,45.16
2022-10-06T09:34:37.538Z,45.06
2022-10-06T09:37:07.567Z,44.79
2022-10-06T09:39:38.734Z,44.71
2022-10-06T09:42:15.252Z,44.78
2022-10-06T09:44:51.380Z,44.95
2022-10-06T09:47:45.176Z,45.05
2022-10-06T09:50:17.550Z,44.78
2022-10-06T09:53:03.678Z,44.82
2022-10-06T09:55:37.371Z,45.18
2022-10-06T09:58:16.356Z,44.77
2022-10-06T10:00:48.218Z,44.76
2022-10-06T10:03:16.120Z,44.37
2022-10-06T10:05:50.528Z,44.55
2022-10-06T10:08:22.397Z,45.06
2022-10-06T10:10:50.615Z,45.38
2022-10-06T10:13:25.329Z,45.76
2022-10-06T10:15:54.428Z,45.42
2022-10-06T10:18:26.578Z,45.51
2022-10-06T10:20:57.579Z,45.38
2022-10-06T10:23:33.448Z,45.25
2022-10-06T10:26:03.727Z,45.68
2022-10-06T10:28:51.676Z,45.98
2022-10-06T10:31:34.034Z,46.33
2022-10-06T10:34:23.954Z,45.97
2022-10-06T10:36:56.478Z,45.67
2022-10-06T10:39:33.724Z,45.50
2022-10-06T10:42:02.728Z,45.81
2022-10-06T10:44:32.726Z,45.62
2022-10-06T10:47:39.231Z,45.73
2022-10-06T10:50:27.294Z,45.72
2022-10-06T10:53:08.923Z,45.41
2022-10-06T10:55:44.761Z,45.22
2022-10-06T10:58:20.051Z,45.37
2022-10-06T11:00:50.378Z,45.39
2022-10-06T11:03:17.097Z,45.40
2022-10-06T11:06:09.153Z,45.50
2022-10-06T11:08:51.245Z,45.85
2022-10-06T11:11:49.869Z,45.51
2022-10-06T11:14:28.672Z,45.85
2022-10-06T11:17:03.895Z,45.79
2022-10-06T11:20:04.437Z,45.61
2022-10-06T11:22:41.906Z,45.67
2022-10-06T11:25:37.216Z,45.82
2022-10-06T11:28:13.504Z,45.98
2022-10-06T11:31:12.484Z,46.10
2022-10-06T11:33:45.956Z,46.33
2022-10-06T11:36:16.265Z,46.00
2022-10-06T11:38:46.968Z,45.77
2022-10-06T11:41:21.397Z,45.95
2022-10-06T11:44:04.446Z,45.90
2022-10-06T11:46:34.924Z,45.52
2022-10-06T11:49:31.029Z,45.17
2022-10-06T11:52:18.057Z,45.14
2022-10-06T11:54:47.518Z,45.13
2022-10-06T12:01:03.215Z,45.28
2022-10-06T12:03:31.141Z,45.30
2022-10-06T12:05:57.968Z,45.33
2022-10-06T12:08:40.829Z,44.99
2022-10-06T12:11:39.245Z,44.44
2022-10-06T12:15:31.807Z,44.51
2022-10-06T12:17:12.692Z,44.37
2022-10-06T12:19:49.599Z,44.23
2022-10-06T12:22:33.273Z,44.03
2022-10-06T12:25:03.166Z,43.76
2022-10-06T12:27:39.918Z,43.68
2022-10-06T12:30:24.685Z,43.60
2022-10-06T12:32:53.962Z,43.81
2022-10-06T12:35:25.577Z,43.95
2022-10-06T12:37:54.688Z,44.32
2022-10-06T12:40:42.035Z,44.31
2022-10-06T12:43:17.656Z,44.37
2022-10-06T12:45:54.833Z,44.70
2022-10-06T12:48:28.773Z,44.73
2022-10-06T12:51:03.749Z,44.98
2022-10-06T12:56:32.578Z,44.23
2022-10-06T12:59:19.924Z,44.11
2022-10-06T13:01:48.802Z,44.33
2022-10-06T13:04:35.839Z,44.34
2022-10-06T13:07:10.107Z,44.49
2022-10-06T13:09:37.340Z,44.55
2022-10-06T13:12:22.315Z,44.02
2022-10-06T13:15:13.199Z,44.33
2022-10-06T13:17:45.078Z,44.23
2022-10-06T13:20:26.501Z,44.30
2022-10-06T13:23:00.521Z,44.23
2022-10-06T13:25:44.540Z,44.26
2022-10-06T13:28:34.561Z,44.40
2022-10-06T13:31:20.663Z,44.76
2022-10-06T13:34:03.717Z,44.98
2022-10-06T13:36:32.698Z,44.97
2022-10-06T13:38:59.628Z,45.01
2022-10-06T13:41:38.130Z,44.65
2022-10-06T13:44:15.082Z,44.51
2022-10-06T13:46:44.117Z,44.56
2022-10-06T13:49:18.371Z,44.60
2022-10-06T13:51:47.835Z,44.63
2022-10-06T13:54:41.677Z,44.86
2022-10-06T13:57:47.926Z,45.20
2022-10-06T14:00:16.346Z,45.19
2022-10-06T14:02:54.271Z,45.19
2022-10-06T14:05:26.505Z,45.12
2022-10-06T14:08:01.509Z,45.26
2022-10-06T14:10:36.725Z,45.21
2022-10-06T14:13:04.377Z,45.50
2022-10-06T14:15:35.320Z,45.82
2022-10-06T14:18:03.229Z,45.99
2022-10-06T14:20:42.765Z,46.07
2022-10-06T14:23:32.279Z,46.05
2022-10-06T14:25:59.289Z,46.10
2022-10-06T14:28:26.121Z,46.40
2022-10-06T14:30:53.776Z,46.48
2022-10-06T14:33:21.194Z,46.53
2022-10-06T14:35:48.816Z,46.58
2022-10-06T14:38:16.182Z,46.86
2022-10-06T14:40:43.500Z,47.12
2022-10-06T14:43:11.073Z,47.21
2022-10-06T14:45:42.114Z,47.44
2022-10-06T14:48:09.761Z,47.75
2022-10-06T14:50:36.789Z,47.82
2022-10-06T14:53:04.061Z,47.96
2022-10-06T14:55:31.354Z,48.25
2022-10-06T14:57:58.466Z,48.63
2022-10-06T15:00:28.465Z,48.99
2022-10-06T15:02:56.385Z,49.71
2022-10-06T15:05:24.316Z,50.45
2022-10-06T15:08:10.426Z,51.09
2022-10-06T15:10:39.376Z,51.99
2022-10-06T15:13:08.629Z,52.77
2022-10-06T15:15:36.209Z,53.49
2022-10-06T15:18:03.940Z,54.11
2022-10-06T15:20:30.924Z,54.56
2022-10-06T15:22:58.727Z,55.11
2022-10-06T15:25:45.892Z,55.59
2022-10-06T15:28:32.626Z,55.95
2022-10-06T15:31:01.525Z,56.59
2022-10-06T15:33:31.317Z,57.07
2022-10-06T15:36:27.400Z,57.61
2022-10-06T15:38:55.845Z,58.26
2022-10-06T15:41:23.885Z,58.77
2022-10-06T15:44:00.326Z,59.07
2022-10-06T15:46:38.341Z,59.18
2022-10-06T15:49:08.035Z,59.60
2022-10-06T15:51:46.056Z,59.99
2022-10-06T15:54:21.116Z,60.30
2022-10-06T15:56:49.151Z,60.69
2022-10-06T15:59:16.357Z,61.04
2022-10-06T16:01:46.652Z,61.44
2022-10-06T16:04:22.217Z,61.86
2022-10-06T16:06:59.495Z,62.26
2022-10-06T16:09:29.321Z,62.72
2022-10-06T16:11:58.050Z,63.03
2022-10-06T16:14:25.123Z,63.49
2022-10-06T16:16:53.568Z,63.73
2022-10-06T16:19:20.959Z,64.07
2022-10-06T16:21:49.070Z,64.25
2022-10-06T16:24:19.845Z,64.60
2022-10-06T16:26:53.977Z,64.82
2022-10-06T16:32:49.044Z,65.54
2022-10-06T16:35:18.295Z,65.83
2022-10-06T16:37:49.777Z,66.10
2022-10-06T16:40:19.926Z,66.27
2022-10-06T16:42:47.300Z,66.47
2022-10-06T16:45:17.535Z,66.78
2022-10-06T16:47:44.787Z,66.97
2022-10-06T16:50:12.067Z,67.32
2022-10-06T16:52:41.219Z,67.55
2022-10-06T16:55:09.117Z,67.67
2022-10-06T16:57:36.869Z,68.02
2022-10-06T17:00:06.189Z,68.24
2022-10-06T17:02:34.089Z,68.44
2022-10-06T17:05:01.426Z,68.76
2022-10-06T17:07:29.624Z,69.12
2022-10-06T17:10:18.908Z,69.34
2022-10-06T17:12:43.810Z,69.87
2022-10-06T17:15:10.954Z,69.98
2022-10-06T17:17:38.387Z,70.32
2022-10-06T17:20:06.201Z,70.43
2022-10-06T17:22:40.042Z,70.55
2022-10-06T17:25:09.017Z,70.66
2022-10-06T17:27:41.907Z,70.85
2022-10-06T17:30:10.958Z,70.87
2022-10-06T17:32:44.738Z,71.18
2022-10-06T17:35:12.240Z,71.22
2022-10-06T17:37:41.483Z,71.49
2022-10-06T17:40:09.723Z,71.60
2022-10-06T17:42:37.695Z,71.65
2022-10-06T17:45:06.750Z,71.78
2022-10-06T17:47:35.947Z,71.87
2022-10-06T17:50:09.719Z,72.26
2022-10-06T17:52:39.029Z,72.48
2022-10-06T17:55:06.557Z,72.64
2022-10-06T17:57:34.925Z,72.91
2022-10-06T18:00:03.366Z,72.99
2022-10-06T18:02:40.634Z,73.22
2022-10-06T18:05:08.042Z,73.23
2022-10-06T18:07:39.126Z,73.21
2022-10-06T18:10:29.295Z,73.58
2022-10-06T18:12:58.398Z,73.52
2022-10-06T18:15:25.524Z,73.62
2022-10-06T18:17:53.411Z,73.78
2022-10-06T18:20:42.930Z,73.78
2022-10-06T18:23:10.244Z,74.06
2022-10-06T18:25:37.691Z,74.14
2022-10-06T18:28:09.613Z,74.33
2022-10-06T18:30:38.832Z,74.39
2022-10-06T18:36:14.600Z,74.34
2022-10-06T18:38:44.614Z,74.37
2022-10-06T18:41:34.492Z,74.45
2022-10-06T18:44:05.949Z,74.71
2022-10-06T18:47:03.957Z,74.78
2022-10-06T18:49:40.459Z,75.02
2022-10-06T18:52:08.449Z,75.27
2022-10-06T18:54:56.380Z,75.80
2022-10-06T18:58:23.276Z,76.12
2022-10-06T19:00:58.159Z,76.28
2022-10-06T19:03:28.856Z,76.59
2022-10-06T19:05:55.957Z,76.84
2022-10-06T19:08:22.763Z,76.75
2022-10-06T19:11:08.471Z,76.91
2022-10-06T19:13:41.779Z,77.21
2022-10-06T19:16:09.600Z,77.23
2022-10-06T19:18:38.697Z,77.51
2022-10-06T19:21:09.818Z,77.53
2022-10-06T19:23:41.884Z,77.60
2022-10-06T19:26:11.391Z,77.61
2022-10-06T19:28:39.692Z,77.75
2022-10-06T19:31:13.376Z,77.54
2022-10-06T19:33:40.641Z,77.52
2022-10-06T19:36:08.230Z,77.48
2022-10-06T19:38:37.282Z,77.58
2022-10-06T19:41:23.811Z,77.53
2022-10-06T19:43:50.852Z,77.56
2022-10-06T19:46:18.233Z,77.53
2022-10-06T19:48:44.973Z,77.64
2022-10-06T19:51:16.462Z,77.46
2022-10-06T19:53:51.192Z,77.20
2022-10-06T19:56:19.023Z,77.34
2022-10-06T19:58:45.791Z,77.49
2022-10-06T20:01:12.624Z,77.62
2022-10-06T20:03:40.199Z,77.79
2022-10-06T20:06:12.123Z,78.05
2022-10-06T20:08:40.516Z,78.07
2022-10-06T20:11:10.416Z,78.10
2022-10-06T20:13:40.812Z,78.25
2022-10-06T20:16:12.702Z,78.25
2022-10-06T20:18:45.746Z,78.33
2022-10-06T20:21:19.980Z,78.26
2022-10-06T20:23:50.878Z,78.29
2022-10-06T20:26:22.484Z,78.19
2022-10-06T20:29:10.343Z,78.38
2022-10-06T20:31:47.120Z,78.54
2022-10-06T20:34:16.175Z,78.46
2022-10-06T20:36:43.645Z,78.44
2022-10-06T20:39:34.624Z,78.60
2022-10-06T20:42:01.924Z,78.87
2022-10-06T20:44:28.682Z,78.65
2022-10-06T20:46:55.745Z,78.65
2022-10-06T20:49:22.541Z,78.68
2022-10-06T20:51:52.422Z,78.88
2022-10-06T20:54:20.263Z,78.92
2022-10-06T20:56:51.246Z,78.91
2022-10-06T20:59:18.924Z,79.18
2022-10-06T21:01:46.156Z,79.30
2022-10-06T21:04:15.110Z,79.22
2022-10-06T21:06:42.339Z,79.31
2022-10-06T21:09:13.101Z,79.32
2022-10-06T21:11:41.425Z,79.58
2022-10-06T21:14:13.175Z,79.65
2022-10-06T21:16:48.076Z,79.64
2022-10-06T21:19:20.018Z,79.93
2022-10-06T21:21:54.036Z,80.27
2022-10-06T21:24:22.132Z,80.06
2022-10-06T21:26:50.435Z,79.88
2022-10-06T21:29:17.207Z,80.06
2022-10-06T21:31:44.796Z,80.31
2022-10-06T21:34:11.800Z,80.60
2022-10-06T21:36:39.392Z,80.99
2022-10-06T21:39:08.404Z,81.24
2022-10-06T21:41:39.463Z,81.16
2022-10-06T21:44:11.251Z,81.54
2022-10-06T21:46:55.297Z,81.71
2022-10-06T21:49:24.290Z,82.29
2022-10-06T21:51:52.677Z,82.33
2022-10-06T21:54:20.178Z,82.35
2022-10-06T21:56:47.738Z,82.53
2022-10-06T21:59:14.623Z,82.52
2022-10-06T22:01:43.664Z,82.76
2022-10-06T22:04:13.438Z,82.63
2022-10-06T22:06:41.645Z,82.26
2022-10-06T22:09:10.318Z,82.29
2022-10-06T22:11:39.134Z,82.37
2022-10-06T22:14:10.833Z,82.88
2022-10-06T22:16:38.529Z,83.20
2022-10-06T22:19:07.190Z,83.64
2022-10-06T22:21:37.754Z,83.87
2022-10-06T22:24:15.930Z,83.88
2022-10-06T22:26:43.326Z,84.12
2022-10-06T22:29:12.551Z,84.27
2022-10-06T22:31:40.368Z,84.47
2022-10-06T22:34:07.956Z,84.58
2022-10-06T22:36:34.934Z,84.90
2022-10-06T22:39:01.816Z,84.91
2022-10-06T22:41:28.714Z,85.01
2022-10-06T22:43:57.617Z,84.97
2022-10-06T22:46:29.197Z,84.87
2022-10-06T22:48:56.525Z,84.82
2022-10-06T22:51:23.293Z,84.76
2022-10-06T22:53:58.804Z,84.68
2022-10-06T22:56:26.888Z,84.52
2022-10-06T22:58:53.797Z,84.72
2022-10-06T23:01:20.795Z,84.51
2022-10-06T23:03:47.782Z,84.65
2022-10-06T23:06:16.606Z,84.53
2022-10-06T23:08:43.329Z,84.53
2022-10-06T23:11:15.405Z,84.59
2022-10-06T23:13:43.353Z,84.64
2022-10-06T23:16:11.364Z,84.60
2022-10-06T23:18:39.191Z,84.53
2022-10-06T23:21:19.264Z,84.62
2022-10-06T23:23:46.314Z,84.59
2022-10-06T23:26:14.639Z,84.54
2022-10-06T23:28:41.669Z,84.60
2022-10-06T23:31:10.015Z,84.42
2022-10-06T23:33:37.347Z,84.44
2022-10-06T23:36:05.968Z,84.27
2022-10-06T23:38:32.956Z,84.08
2022-10-06T23:40:59.742Z,83.93
2022-10-06T23:43:26.818Z,83.71
2022-10-06T23:45:53.759Z,83.58
2022-10-06T23:48:20.695Z,83.38
2022-10-06T23:51:00.926Z,83.24
2022-10-06T23:53:28.034Z,82.97
2022-10-06T23:55:55.311Z,82.69
2022-10-06T23:58:22.691Z,82.54
